• Join FlightAware (Why Join?)
  • Login
  • US Flag 
04:22AM EDT


 

Airport Tracker/Info


-or-


 

Live Flight TrackerFlight Track Log ✈ KAP927 ✈ 22-Jun-2013 ✈ KBOS - KALB

Flight Track Log - Related Links

Times and Time Zones

All times are in EDT time to prevent confusion due to time zone crossing. See the KAP927 flight status page for this flight to view local times or setup timezone preferences in your user account.

Time Position Orientation Groundspeed Altitude Reporting Facility
EDT Latitude Longitude Course Direction KTS MPH feet Rate Location/Type
01:09PM 42.3667 -71.0167 236° Southwest 107 123 400  Level KA90
01:10PM 42.3500 -71.0500 236° Southwest 96 110 1,200 720 Climbing KA90
01:11PM 42.3500 -71.0833 270° West 100 115 1,900 660 Climbing KA90
01:12PM 42.3333 -71.1167 236° Southwest 108 124 2,600 660 Climbing KA90
01:13PM 42.3333 -71.1667 270° West 112 129 3,300 660 Climbing KA90
01:14PM 42.3333 -71.2000 270° West 110 127 4,000 480 Climbing KA90
01:15PM 42.3167 -71.2500 246° West 112 129 4,400 420 Climbing KA90
01:16PM 42.3167 -71.3000 270° West 116 133 4,900 480 Climbing KA90
01:17PM 42.3167 -71.3333 270° West 115 132 5,400 480 Climbing KA90
01:18PM 42.3167 -71.3833 270° West 119 137 5,900 420 Climbing KA90
01:19PM 42.3000 -71.4333 246° West 123 142 6,300 420 Climbing KA90
01:20PM 42.2983 -71.4772 267° West 124 143 6,800 420 Climbing Boston Center
01:21PM 42.2986 -71.5025 271° West 128 147 7,000 360 Climbing Boston Center
01:22PM 42.2928 -71.5531 261° West 129 148 7,400 420 Climbing Boston Center
01:23PM 42.2869 -71.6039 261° West 131 151 7,900 300 Climbing Boston Center
01:24PM 42.2831 -71.6544 264° West 138 159 8,100 60 Climbing Boston Center
01:25PM 42.2792 -71.7133 265° West 153 176 8,100  Level Boston Center
01:26PM 42.2733 -71.7778 263° West 158 182 8,100  Level Boston Center
01:27PM 42.2675 -71.8369 262° West 161 185 8,100  Level Boston Center
01:28PM 42.2719 -71.8958 276° West 164 189 8,100  Level Boston Center
01:29PM 42.2722 -71.9575 270° West 162 186 8,100  Level Boston Center
01:30PM 42.2744 -72.0164 273° West 155 178 8,100  Level Boston Center
01:31PM 42.2747 -72.0725 270° West 148 170 8,100  Level Boston Center
01:32PM 42.2750 -72.1286 270° West 148 170 8,100  Level Boston Center
01:33PM 42.2792 -72.1847 276° West 147 169 8,100  Level Boston Center
01:34PM 42.2981 -72.2381 296° West 154 177 8,100  Level Boston Center
01:35PM 42.3128 -72.2914 290° West 151 174 8,100  Level Boston Center
01:36PM 42.3275 -72.3447 290° West 151 174 8,100  Level Boston Center
01:37PM 42.3461 -72.3981 295° West 151 174 8,100  Level Boston Center
01:38PM 42.3586 -72.4514 288° West 151 174 8,100  Level Boston Center
01:39PM 42.3753 -72.5047 293° West 153 176 8,100  Level Boston Center
01:40PM 42.3900 -72.5611 289° West 152 175 8,100  Level Boston Center
01:41PM 42.4086 -72.6172 294° West 148 170 8,100  Level Boston Center
01:42PM 42.4253 -72.6678 294° West 147 169 8,100  Level Boston Center
01:43PM 42.4397 -72.7186 291° West 146 168 8,100 -60 Level Boston Center
01:44PM 42.4583 -72.7833 291° West 149 171 8,000 -60 Descending Boston Center
01:45PM 42.4706 -72.8286 290° West 151 174 8,000  Level Boston Center
01:46PM 42.4869 -72.8878 291° West 150 173 8,000  Level Boston Center
01:48PM 42.5075 -72.9556 292° West 152 175 8,000  Level Boston Center
01:49PM 42.5242 -73.0064 294° West 151 174 8,000  Level Boston Center
01:50PM 42.5383 -73.0572 291° West 149 171 8,000  Level Boston Center
01:51PM 42.5528 -73.1108 290° West 146 168 8,000 -240 Level Boston Center
01:52PM 42.5814 -73.1647 306° West 161 185 7,600 -420 Descending Boston Center
01:53PM 42.6083 -73.2186 304° West 167 192 7,200 -420 Descending Boston Center
01:54PM 42.6328 -73.2669 305° West 171 197 6,800 -480 Descending Boston Center
01:55PM 42.6617 -73.3153 309° West 171 197 6,300 -420 Descending Boston Center
01:56PM 42.6883 -73.3667 305° West 169 194 6,000 -180 Descending Boston Center
01:57PM 42.7108 -73.4119 304° West 156 180 6,000  Level Boston Center
01:58PM 42.7356 -73.4578 306° West 146 168 6,000 -60 Level Boston Center
01:59PM 42.7622 -73.5006 310° West 148 170 5,900 -300 Descending Boston Center
02:00PM 42.7908 -73.5547 306° West 166 191 5,400 -480 Descending Boston Center
02:01PM 42.8156 -73.6006 306° West 168 193 5,000 -480 Descending Boston Center
02:02PM 42.8419 -73.6519 305° West 159 183 4,500 -540 Descending Boston Center
02:03PM 42.8706 -73.7008 309° West 159 183 4,000 -480 Descending Boston Center
02:04PM 42.8953 -73.7381 312° West 155 178 3,600 -540 Descending Boston Center
02:05PM 42.8864 -73.7917 257° West 149 171 3,100 -660 Descending Boston Center
02:06PM 42.8547 -73.8136 207° Southwest 129 148 2,300 -720 Descending Boston Center
02:07PM 42.8194 -73.8100 176° South 128 147 1,600 -720 Descending Boston Center
02:08PM 42.7881 -73.8094 179° South 118 136 1,000 -720 Descending Boston Center
02:10PM 42.7491 -73.8020 228° Southwest  Level Estimated
02:17PM 42.7491 -73.8020 228° Southwest  Level Estimated
02:18PM 42.7491 -73.8020 228° Southwest  Level Estimated